sensor_id;sensor_type;location;lat;lon;timestamp;pressure;altitude;pressure_sealevel;temperature;humidity
28797;BME280;24974;54.444;18.560;2023-07-13T00:02:27;100759.44;;;19.20;nan
28797;BME280;24974;54.444;18.560;2023-07-13T00:04:58;100766.47;;;19.14;nan
28797;BME280;24974;54.444;18.560;2023-07-13T00:07:29;100765.66;;;19.13;nan
28797;BME280;24974;54.444;18.560;2023-07-13T00:10:03;100768.13;;;18.99;nan
28797;BME280;24974;54.444;18.560;2023-07-13T00:12:36;100778.69;;;19.48;nan
28797;BME280;24974;54.444;18.560;2023-07-13T00:15:13;100776.16;;;19.20;nan
28797;BME280;24974;54.444;18.560;2023-07-13T00:17:44;100784.13;;;19.41;nan
28797;BME280;24974;54.444;18.560;2023-07-13T00:20:15;100786.72;;;19.49;nan
28797;BME280;24974;54.444;18.560;2023-07-13T00:22:47;100786.88;;;19.56;nan
28797;BME280;24974;54.444;18.560;2023-07-13T00:25:18;100774.53;;;19.19;nan
28797;BME280;24974;54.444;18.560;2023-07-13T00:27:49;100762.28;;;19.62;nan
28797;BME280;24974;54.444;18.560;2023-07-13T00:30:19;100762.13;;;19.74;nan
28797;BME280;24974;54.444;18.560;2023-07-13T00:32:50;100755.69;;;19.70;nan
28797;BME280;24974;54.444;18.560;2023-07-13T00:35:21;100742.41;;;19.64;nan
28797;BME280;24974;54.444;18.560;2023-07-13T00:37:52;100737.63;;;19.64;nan
28797;BME280;24974;54.444;18.560;2023-07-13T00:40:23;100735.81;;;19.52;nan
28797;BME280;24974;54.444;18.560;2023-07-13T00:42:57;100746.94;;;19.52;nan
28797;BME280;24974;54.444;18.560;2023-07-13T00:48:00;100754.75;;;19.43;nan
28797;BME280;24974;54.444;18.560;2023-07-13T00:50:31;100755.34;;;19.33;nan
28797;BME280;24974;54.444;18.560;2023-07-13T00:53:02;100750.28;;;19.19;nan
28797;BME280;24974;54.444;18.560;2023-07-13T00:55:35;100751.69;;;18.43;nan
28797;BME280;24974;54.444;18.560;2023-07-13T00:58:06;100750.31;;;19.23;nan
28797;BME280;24974;54.444;18.560;2023-07-13T01:00:38;100766.75;;;19.47;nan
28797;BME280;24974;54.444;18.560;2023-07-13T01:03:09;100761.19;;;19.28;nan
28797;BME280;24974;54.444;18.560;2023-07-13T01:05:40;100774.97;;;19.21;nan
28797;BME280;24974;54.444;18.560;2023-07-13T01:08:11;100775.72;;;19.37;nan
28797;BME280;24974;54.444;18.560;2023-07-13T01:10:51;100778.69;;;19.48;nan
28797;BME280;24974;54.444;18.560;2023-07-13T01:13:23;100773.88;;;19.45;nan
28797;BME280;24974;54.444;18.560;2023-07-13T01:15:56;100777.31;;;19.38;nan
28797;BME280;24974;54.444;18.560;2023-07-13T01:18:29;100778.94;;;19.39;nan
28797;BME280;24974;54.444;18.560;2023-07-13T01:21:03;100780.47;;;19.37;nan
28797;BME280;24974;54.444;18.560;2023-07-13T01:23:34;100785.53;;;19.50;nan
28797;BME280;24974;54.444;18.560;2023-07-13T01:26:05;100784.97;;;19.41;nan
28797;BME280;24974;54.444;18.560;2023-07-13T01:28:36;100787.06;;;19.48;nan
28797;BME280;24974;54.444;18.560;2023-07-13T01:31:08;100783.09;;;19.49;nan
28797;BME280;24974;54.444;18.560;2023-07-13T01:33:40;100793.16;;;19.53;nan
28797;BME280;24974;54.444;18.560;2023-07-13T01:36:11;100795.22;;;19.37;nan
28797;BME280;24974;54.444;18.560;2023-07-13T01:38:42;100792.47;;;19.02;nan
28797;BME280;24974;54.444;18.560;2023-07-13T01:41:13;100789.53;;;18.95;nan
28797;BME280;24974;54.444;18.560;2023-07-13T01:43:44;100795.50;;;19.32;nan
28797;BME280;24974;54.444;18.560;2023-07-13T01:46:15;100801.66;;;19.22;nan
28797;BME280;24974;54.444;18.560;2023-07-13T01:48:45;100798.00;;;19.18;nan
28797;BME280;24974;54.444;18.560;2023-07-13T01:51:17;100804.28;;;19.15;nan
28797;BME280;24974;54.444;18.560;2023-07-13T01:53:49;100796.81;;;19.19;nan
28797;BME280;24974;54.444;18.560;2023-07-13T01:56:21;100809.03;;;18.95;nan
28797;BME280;24974;54.444;18.560;2023-07-13T01:58:52;100798.50;;;19.04;nan
28797;BME280;24974;54.444;18.560;2023-07-13T02:01:23;100805.03;;;19.31;nan
28797;BME280;24974;54.444;18.560;2023-07-13T02:03:54;100797.03;;;19.10;nan
28797;BME280;24974;54.444;18.560;2023-07-13T02:06:25;100802.31;;;19.15;nan
28797;BME280;24974;54.444;18.560;2023-07-13T02:08:56;100808.03;;;19.22;nan
28797;BME280;24974;54.444;18.560;2023-07-13T02:11:26;100814.63;;;18.63;nan
28797;BME280;24974;54.444;18.560;2023-07-13T02:14:03;100820.63;;;18.34;nan
28797;BME280;24974;54.444;18.560;2023-07-13T02:16:34;100823.41;;;18.18;nan
28797;BME280;24974;54.444;18.560;2023-07-13T02:19:05;100824.84;;;18.12;nan
28797;BME280;24974;54.444;18.560;2023-07-13T02:21:36;100832.59;;;18.82;nan
28797;BME280;24974;54.444;18.560;2023-07-13T02:24:07;100831.41;;;18.51;nan
28797;BME280;24974;54.444;18.560;2023-07-13T02:26:39;100834.91;;;18.48;nan
28797;BME280;24974;54.444;18.560;2023-07-13T02:29:10;100835.13;;;18.71;nan
28797;BME280;24974;54.444;18.560;2023-07-13T02:31:41;100834.72;;;18.25;nan
28797;BME280;24974;54.444;18.560;2023-07-13T02:34:12;100834.19;;;18.51;nan
28797;BME280;24974;54.444;18.560;2023-07-13T02:36:43;100826.00;;;18.90;nan
28797;BME280;24974;54.444;18.560;2023-07-13T02:39:15;100825.31;;;18.93;nan
28797;BME280;24974;54.444;18.560;2023-07-13T02:41:46;100826.25;;;19.00;nan
28797;BME280;24974;54.444;18.560;2023-07-13T02:44:18;100823.72;;;19.11;nan
28797;BME280;24974;54.444;18.560;2023-07-13T02:46:49;100819.97;;;19.04;nan
28797;BME280;24974;54.444;18.560;2023-07-13T02:49:19;100828.84;;;19.09;nan
28797;BME280;24974;54.444;18.560;2023-07-13T02:51:51;100823.81;;;19.34;nan
28797;BME280;24974;54.444;18.560;2023-07-13T02:54:22;100826.63;;;18.99;nan
28797;BME280;24974;54.444;18.560;2023-07-13T02:56:53;100825.13;;;19.21;nan
28797;BME280;24974;54.444;18.560;2023-07-13T02:59:24;100823.53;;;19.39;nan
28797;BME280;24974;54.444;18.560;2023-07-13T03:01:55;100818.84;;;19.63;nan
28797;BME280;24974;54.444;18.560;2023-07-13T03:04:26;100813.00;;;19.68;nan
28797;BME280;24974;54.444;18.560;2023-07-13T03:06:57;100817.78;;;19.67;nan
28797;BME280;24974;54.444;18.560;2023-07-13T03:09:34;100809.63;;;19.59;nan
28797;BME280;24974;54.444;18.560;2023-07-13T03:12:06;100817.09;;;19.74;nan
28797;BME280;24974;54.444;18.560;2023-07-13T03:14:37;100816.41;;;19.80;nan
28797;BME280;24974;54.444;18.560;2023-07-13T03:17:10;100818.78;;;19.78;nan
28797;BME280;24974;54.444;18.560;2023-07-13T03:19:44;100816.56;;;19.88;nan
28797;BME280;24974;54.444;18.560;2023-07-13T03:22:19;100823.44;;;19.94;nan
28797;BME280;24974;54.444;18.560;2023-07-13T03:24:50;100817.31;;;19.84;nan
28797;BME280;24974;54.444;18.560;2023-07-13T03:27:21;100817.88;;;19.94;nan
28797;BME280;24974;54.444;18.560;2023-07-13T03:29:53;100819.31;;;20.07;nan
28797;BME280;24974;54.444;18.560;2023-07-13T03:32:24;100814.44;;;19.81;nan
28797;BME280;24974;54.444;18.560;2023-07-13T03:34:55;100817.34;;;19.88;nan
28797;BME280;24974;54.444;18.560;2023-07-13T03:37:26;100810.88;;;20.03;nan
28797;BME280;24974;54.444;18.560;2023-07-13T03:39:57;100811.69;;;20.04;nan
28797;BME280;24974;54.444;18.560;2023-07-13T03:42:30;100802.50;;;20.03;nan
28797;BME280;24974;54.444;18.560;2023-07-13T03:45:01;100800.53;;;20.27;nan
28797;BME280;24974;54.444;18.560;2023-07-13T03:47:35;100804.91;;;20.47;nan
28797;BME280;24974;54.444;18.560;2023-07-13T03:50:09;100800.63;;;20.53;nan
28797;BME280;24974;54.444;18.560;2023-07-13T03:52:40;100807.56;;;20.63;nan
28797;BME280;24974;54.444;18.560;2023-07-13T03:55:11;100811.16;;;20.90;nan
28797;BME280;24974;54.444;18.560;2023-07-13T03:57:42;100826.50;;;20.77;nan
28797;BME280;24974;54.444;18.560;2023-07-13T04:00:13;100816.84;;;20.97;nan
28797;BME280;24974;54.444;18.560;2023-07-13T04:02:47;100815.44;;;20.57;nan
28797;BME280;24974;54.444;18.560;2023-07-13T04:05:20;100816.81;;;20.93;nan
28797;BME280;24974;54.444;18.560;2023-07-13T04:07:51;100815.88;;;21.12;nan
28797;BME280;24974;54.444;18.560;2023-07-13T04:10:22;100820.13;;;21.03;nan
28797;BME280;24974;54.444;18.560;2023-07-13T04:12:53;100824.28;;;21.16;nan
28797;BME280;24974;54.444;18.560;2023-07-13T04:15:23;100828.66;;;20.87;nan
28797;BME280;24974;54.444;18.560;2023-07-13T04:17:54;100834.56;;;20.82;nan
28797;BME280;24974;54.444;18.560;2023-07-13T04:20:26;100832.47;;;21.28;nan
28797;BME280;24974;54.444;18.560;2023-07-13T04:22:57;100834.75;;;21.22;nan
28797;BME280;24974;54.444;18.560;2023-07-13T04:25:28;100837.84;;;21.14;nan
28797;BME280;24974;54.444;18.560;2023-07-13T04:27:58;100831.16;;;21.22;nan
28797;BME280;24974;54.444;18.560;2023-07-13T04:30:29;100836.81;;;21.26;nan
28797;BME280;24974;54.444;18.560;2023-07-13T04:33:00;100838.50;;;21.30;nan
28797;BME280;24974;54.444;18.560;2023-07-13T04:35:31;100846.84;;;21.90;nan
28797;BME280;24974;54.444;18.560;2023-07-13T04:38:03;100855.13;;;21.23;nan
28797;BME280;24974;54.444;18.560;2023-07-13T04:40:33;100861.00;;;21.41;nan
28797;BME280;24974;54.444;18.560;2023-07-13T04:43:04;100856.66;;;21.43;nan
28797;BME280;24974;54.444;18.560;2023-07-13T04:45:35;100847.06;;;22.08;nan
28797;BME280;24974;54.444;18.560;2023-07-13T04:48:06;100843.97;;;22.65;nan
28797;BME280;24974;54.444;18.560;2023-07-13T04:50:37;100840.31;;;22.57;nan
28797;BME280;24974;54.444;18.560;2023-07-13T04:53:08;100828.09;;;22.31;nan
28797;BME280;24974;54.444;18.560;2023-07-13T04:55:39;100849.66;;;22.75;nan
28797;BME280;24974;54.444;18.560;2023-07-13T04:58:11;100843.69;;;22.32;nan
28797;BME280;24974;54.444;18.560;2023-07-13T05:00:42;100848.28;;;22.11;nan
28797;BME280;24974;54.444;18.560;2023-07-13T05:03:12;100839.31;;;21.98;nan
28797;BME280;24974;54.444;18.560;2023-07-13T05:05:43;100848.63;;;22.46;nan
28797;BME280;24974;54.444;18.560;2023-07-13T05:08:24;100839.59;;;22.67;nan
28797;BME280;24974;54.444;18.560;2023-07-13T05:10:55;100840.25;;;22.94;nan
28797;BME280;24974;54.444;18.560;2023-07-13T05:13:26;100842.25;;;22.49;nan
28797;BME280;24974;54.444;18.560;2023-07-13T05:15:59;100844.84;;;22.72;nan
28797;BME280;24974;54.444;18.560;2023-07-13T05:18:30;100846.72;;;23.09;nan
28797;BME280;24974;54.444;18.560;2023-07-13T05:21:07;100849.66;;;22.75;nan
28797;BME280;24974;54.444;18.560;2023-07-13T05:23:39;100862.31;;;23.03;nan
28797;BME280;24974;54.444;18.560;2023-07-13T05:26:12;100863.69;;;23.34;nan
28797;BME280;24974;54.444;18.560;2023-07-13T05:28:42;100872.22;;;22.93;nan
28797;BME280;24974;54.444;18.560;2023-07-13T05:31:13;100868.53;;;23.40;nan
28797;BME280;24974;54.444;18.560;2023-07-13T05:33:44;100871.63;;;23.21;nan
28797;BME280;24974;54.444;18.560;2023-07-13T05:36:15;100868.59;;;23.51;nan
28797;BME280;24974;54.444;18.560;2023-07-13T05:38:46;100880.00;;;23.83;nan
28797;BME280;24974;54.444;18.560;2023-07-13T05:41:16;100872.22;;;23.55;nan
28797;BME280;24974;54.444;18.560;2023-07-13T05:43:47;100881.94;;;23.72;nan
28797;BME280;24974;54.444;18.560;2023-07-13T05:46:18;100884.38;;;23.77;nan
28797;BME280;24974;54.444;18.560;2023-07-13T05:48:49;100893.22;;;23.86;nan
28797;BME280;24974;54.444;18.560;2023-07-13T05:51:20;100894.66;;;23.55;nan
28797;BME280;24974;54.444;18.560;2023-07-13T05:53:51;100904.03;;;23.77;nan
28797;BME280;24974;54.444;18.560;2023-07-13T05:56:22;100903.34;;;23.32;nan
28797;BME280;24974;54.444;18.560;2023-07-13T05:58:52;100905.63;;;23.78;nan
28797;BME280;24974;54.444;18.560;2023-07-13T06:01:23;100906.13;;;24.05;nan
28797;BME280;24974;54.444;18.560;2023-07-13T06:03:54;100909.88;;;24.55;nan
28797;BME280;24974;54.444;18.560;2023-07-13T06:06:25;100917.72;;;23.96;nan
28797;BME280;24974;54.444;18.560;2023-07-13T06:08:56;100917.81;;;24.25;nan
28797;BME280;24974;54.444;18.560;2023-07-13T06:11:27;100915.38;;;24.13;nan
28797;BME280;24974;54.444;18.560;2023-07-13T06:14:00;100915.84;;;24.36;nan
28797;BME280;24974;54.444;18.560;2023-07-13T06:16:31;100916.44;;;23.80;nan
28797;BME280;24974;54.444;18.560;2023-07-13T06:19:02;100928.78;;;23.64;nan
28797;BME280;24974;54.444;18.560;2023-07-13T06:21:32;100923.38;;;24.07;nan
28797;BME280;24974;54.444;18.560;2023-07-13T06:24:03;100921.56;;;23.60;nan
28797;BME280;24974;54.444;18.560;2023-07-13T06:26:34;100922.97;;;24.05;nan
28797;BME280;24974;54.444;18.560;2023-07-13T06:29:05;100924.28;;;24.36;nan
28797;BME280;24974;54.444;18.560;2023-07-13T06:31:36;100929.69;;;23.76;nan
28797;BME280;24974;54.444;18.560;2023-07-13T06:34:07;100927.38;;;23.33;nan
28797;BME280;24974;54.444;18.560;2023-07-13T06:36:38;100924.63;;;23.40;nan
28797;BME280;24974;54.444;18.560;2023-07-13T06:39:09;100925.72;;;23.87;nan
28797;BME280;24974;54.444;18.560;2023-07-13T06:41:39;100923.38;;;24.00;nan
28797;BME280;24974;54.444;18.560;2023-07-13T06:44:14;100916.97;;;24.07;nan
28797;BME280;24974;54.444;18.560;2023-07-13T06:46:45;100936.97;;;23.91;nan
28797;BME280;24974;54.444;18.560;2023-07-13T06:49:16;100928.44;;;23.69;nan
28797;BME280;24974;54.444;18.560;2023-07-13T06:51:47;100922.91;;;23.84;nan
28797;BME280;24974;54.444;18.560;2023-07-13T06:54:17;100929.84;;;24.18;nan
28797;BME280;24974;54.444;18.560;2023-07-13T06:56:48;100924.34;;;24.82;nan
28797;BME280;24974;54.444;18.560;2023-07-13T06:59:19;100923.13;;;25.01;nan
28797;BME280;24974;54.444;18.560;2023-07-13T07:01:50;100925.16;;;25.08;nan
28797;BME280;24974;54.444;18.560;2023-07-13T07:04:21;100927.56;;;24.92;nan
28797;BME280;24974;54.444;18.560;2023-07-13T07:06:52;100940.03;;;24.80;nan
28797;BME280;24974;54.444;18.560;2023-07-13T07:09:23;100936.75;;;24.53;nan
28797;BME280;24974;54.444;18.560;2023-07-13T07:11:53;100935.59;;;24.90;nan
28797;BME280;24974;54.444;18.560;2023-07-13T07:14:24;100944.84;;;24.87;nan
28797;BME280;24974;54.444;18.560;2023-07-13T07:16:55;100943.97;;;24.40;nan
28797;BME280;24974;54.444;18.560;2023-07-13T07:19:29;100939.25;;;25.12;nan
28797;BME280;24974;54.444;18.560;2023-07-13T07:22:00;100940.78;;;24.48;nan
28797;BME280;24974;54.444;18.560;2023-07-13T07:24:31;100942.66;;;24.16;nan
28797;BME280;24974;54.444;18.560;2023-07-13T07:27:02;100936.78;;;24.57;nan
28797;BME280;24974;54.444;18.560;2023-07-13T07:29:33;100939.25;;;25.04;nan
28797;BME280;24974;54.444;18.560;2023-07-13T07:32:04;100932.75;;;24.68;nan
28797;BME280;24974;54.444;18.560;2023-07-13T07:34:35;100942.84;;;24.80;nan
28797;BME280;24974;54.444;18.560;2023-07-13T07:37:06;100939.22;;;25.29;nan
28797;BME280;24974;54.444;18.560;2023-07-13T07:39:37;100943.63;;;24.77;nan
28797;BME280;24974;54.444;18.560;2023-07-13T07:42:08;100944.47;;;25.20;nan
28797;BME280;24974;54.444;18.560;2023-07-13T07:44:40;100946.06;;;25.18;nan
28797;BME280;24974;54.444;18.560;2023-07-13T07:47:11;100941.59;;;25.45;nan
28797;BME280;24974;54.444;18.560;2023-07-13T07:49:42;100934.41;;;25.19;nan
28797;BME280;24974;54.444;18.560;2023-07-13T07:52:13;100939.47;;;25.88;nan
28797;BME280;24974;54.444;18.560;2023-07-13T07:54:44;100944.91;;;26.35;nan
28797;BME280;24974;54.444;18.560;2023-07-13T07:57:15;100949.16;;;25.80;nan
28797;BME280;24974;54.444;18.560;2023-07-13T07:59:46;100945.41;;;26.15;nan
28797;BME280;24974;54.444;18.560;2023-07-13T08:02:16;100950.53;;;26.35;nan
28797;BME280;24974;54.444;18.560;2023-07-13T08:04:47;100952.88;;;25.31;nan
28797;BME280;24974;54.444;18.560;2023-07-13T08:07:18;100957.72;;;25.27;nan
28797;BME280;24974;54.444;18.560;2023-07-13T08:09:52;100961.59;;;25.90;nan
28797;BME280;24974;54.444;18.560;2023-07-13T08:12:23;100968.41;;;26.03;nan
28797;BME280;24974;54.444;18.560;2023-07-13T08:14:53;100959.38;;;26.37;nan
28797;BME280;24974;54.444;18.560;2023-07-13T08:17:27;100965.69;;;27.18;nan
28797;BME280;24974;54.444;18.560;2023-07-13T08:19:58;100963.13;;;26.16;nan
28797;BME280;24974;54.444;18.560;2023-07-13T08:22:29;100952.50;;;26.48;nan
28797;BME280;24974;54.444;18.560;2023-07-13T08:25:01;100965.50;;;26.21;nan
28797;BME280;24974;54.444;18.560;2023-07-13T08:27:32;100959.81;;;26.32;nan
28797;BME280;24974;54.444;18.560;2023-07-13T08:30:04;100963.31;;;26.57;nan
28797;BME280;24974;54.444;18.560;2023-07-13T08:32:36;100964.59;;;27.01;nan
28797;BME280;24974;54.444;18.560;2023-07-13T08:35:07;100955.38;;;26.97;nan
28797;BME280;24974;54.444;18.560;2023-07-13T08:37:38;100959.72;;;27.09;nan
28797;BME280;24974;54.444;18.560;2023-07-13T08:40:10;100960.47;;;26.61;nan
28797;BME280;24974;54.444;18.560;2023-07-13T08:42:43;100968.38;;;26.10;nan
28797;BME280;24974;54.444;18.560;2023-07-13T08:45:46;100968.38;;;27.32;nan
28797;BME280;24974;54.444;18.560;2023-07-13T08:53:43;100979.09;;;27.03;nan
28797;BME280;24974;54.444;18.560;2023-07-13T08:56:19;100973.13;;;26.94;nan
28797;BME280;24974;54.444;18.560;2023-07-13T08:58:56;100963.78;;;27.49;nan
28797;BME280;24974;54.444;18.560;2023-07-13T09:04:59;100956.19;;;26.94;nan
28797;BME280;24974;54.444;18.560;2023-07-13T09:07:40;100956.31;;;27.73;nan
28797;BME280;24974;54.444;18.560;2023-07-13T09:10:31;100959.47;;;27.78;nan
28797;BME280;24974;54.444;18.560;2023-07-13T09:15:45;100959.44;;;28.12;nan
28797;BME280;24974;54.444;18.560;2023-07-13T09:18:29;100948.41;;;28.25;nan
28797;BME280;24974;54.444;18.560;2023-07-13T09:21:17;100940.63;;;28.60;nan
28797;BME280;24974;54.444;18.560;2023-07-13T09:23:53;100948.66;;;27.66;nan
28797;BME280;24974;54.444;18.560;2023-07-13T09:26:28;100949.28;;;28.76;nan
28797;BME280;24974;54.444;18.560;2023-07-13T09:29:10;100953.06;;;27.74;nan
28797;BME280;24974;54.444;18.560;2023-07-13T09:31:49;100950.31;;;27.64;nan
28797;BME280;24974;54.444;18.560;2023-07-13T09:34:25;100943.47;;;28.33;nan
28797;BME280;24974;54.444;18.560;2023-07-13T09:36:56;100942.75;;;29.06;nan
28797;BME280;24974;54.444;18.560;2023-07-13T09:39:35;100948.66;;;29.39;nan
28797;BME280;24974;54.444;18.560;2023-07-13T09:42:15;100948.72;;;29.12;nan
28797;BME280;24974;54.444;18.560;2023-07-13T09:44:54;100944.78;;;29.29;nan
28797;BME280;24974;54.444;18.560;2023-07-13T09:50:02;100946.53;;;29.86;nan
28797;BME280;24974;54.444;18.560;2023-07-13T09:52:47;100945.38;;;29.40;nan
28797;BME280;24974;54.444;18.560;2023-07-13T09:57:57;100964.47;;;29.13;nan
28797;BME280;24974;54.444;18.560;2023-07-13T10:00:29;100971.47;;;28.51;nan
28797;BME280;24974;54.444;18.560;2023-07-13T10:03:04;100973.97;;;27.39;nan
28797;BME280;24974;54.444;18.560;2023-07-13T10:05:41;100962.97;;;27.07;nan
28797;BME280;24974;54.444;18.560;2023-07-13T10:08:25;100970.28;;;27.46;nan
28797;BME280;24974;54.444;18.560;2023-07-13T10:11:00;100974.56;;;26.64;nan
28797;BME280;24974;54.444;18.560;2023-07-13T10:13:37;100978.06;;;26.02;nan
28797;BME280;24974;54.444;18.560;2023-07-13T10:16:10;100983.00;;;24.98;nan
28797;BME280;24974;54.444;18.560;2023-07-13T10:18:57;100989.78;;;24.76;nan
28797;BME280;24974;54.444;18.560;2023-07-13T10:21:33;100991.25;;;24.23;nan
28797;BME280;24974;54.444;18.560;2023-07-13T10:24:22;100993.44;;;24.87;nan
28797;BME280;24974;54.444;18.560;2023-07-13T10:27:11;100987.47;;;25.03;nan
28797;BME280;24974;54.444;18.560;2023-07-13T10:29:50;101006.69;;;25.01;nan
28797;BME280;24974;54.444;18.560;2023-07-13T10:32:24;101015.16;;;25.22;nan
28797;BME280;24974;54.444;18.560;2023-07-13T10:34:55;101012.34;;;25.54;nan
28797;BME280;24974;54.444;18.560;2023-07-13T10:37:42;101010.69;;;25.85;nan
28797;BME280;24974;54.444;18.560;2023-07-13T10:40:22;101011.56;;;25.29;nan
28797;BME280;24974;54.444;18.560;2023-07-13T10:42:56;101008.63;;;26.07;nan
28797;BME280;24974;54.444;18.560;2023-07-13T10:45:31;101007.81;;;26.91;nan
28797;BME280;24974;54.444;18.560;2023-07-13T10:48:05;101012.22;;;26.92;nan
28797;BME280;24974;54.444;18.560;2023-07-13T10:50:43;101005.16;;;26.66;nan
28797;BME280;24974;54.444;18.560;2023-07-13T10:53:29;100999.13;;;27.23;nan
28797;BME280;24974;54.444;18.560;2023-07-13T10:56:03;101006.78;;;27.19;nan
28797;BME280;24974;54.444;18.560;2023-07-13T10:58:38;101000.53;;;27.45;nan
28797;BME280;24974;54.444;18.560;2023-07-13T11:01:13;101011.88;;;28.17;nan
28797;BME280;24974;54.444;18.560;2023-07-13T11:03:50;101020.63;;;28.87;nan
28797;BME280;24974;54.444;18.560;2023-07-13T11:06:39;101015.78;;;29.85;nan
28797;BME280;24974;54.444;18.560;2023-07-13T11:09:28;101008.06;;;30.45;nan
28797;BME280;24974;54.444;18.560;2023-07-13T11:20:21;101027.88;;;30.85;nan
28797;BME280;24974;54.444;18.560;2023-07-13T11:25:48;101021.63;;;30.18;nan
28797;BME280;24974;54.444;18.560;2023-07-13T11:28:23;101021.91;;;30.79;nan
28797;BME280;24974;54.444;18.560;2023-07-13T11:36:15;101028.25;;;32.26;nan
28797;BME280;24974;54.444;18.560;2023-07-13T11:39:02;101026.50;;;32.16;nan
28797;BME280;24974;54.444;18.560;2023-07-13T11:41:44;101038.75;;;31.23;nan
28797;BME280;24974;54.444;18.560;2023-07-13T11:44:20;101044.06;;;30.48;nan
28797;BME280;24974;54.444;18.560;2023-07-13T11:46:59;101038.22;;;29.52;nan
28797;BME280;24974;54.444;18.560;2023-07-13T11:49:31;101041.03;;;29.76;nan
28797;BME280;24974;54.444;18.560;2023-07-13T11:52:03;101042.88;;;28.58;nan
28797;BME280;24974;54.444;18.560;2023-07-13T11:54:46;101033.03;;;28.39;nan
28797;BME280;24974;54.444;18.560;2023-07-13T11:57:34;101028.16;;;27.68;nan
28797;BME280;24974;54.444;18.560;2023-07-13T12:00:15;101024.00;;;27.35;nan
28797;BME280;24974;54.444;18.560;2023-07-13T12:02:50;101034.09;;;27.36;nan
28797;BME280;24974;54.444;18.560;2023-07-13T12:05:21;101031.84;;;27.13;nan
28797;BME280;24974;54.444;18.560;2023-07-13T12:07:53;101027.69;;;27.77;nan
28797;BME280;24974;54.444;18.560;2023-07-13T12:10:27;101032.13;;;28.12;nan
28797;BME280;24974;54.444;18.560;2023-07-13T12:13:05;101040.03;;;30.06;nan
28797;BME280;24974;54.444;18.560;2023-07-13T12:15:40;101044.78;;;29.93;nan
28797;BME280;24974;54.444;18.560;2023-07-13T12:18:18;101043.84;;;30.95;nan
28797;BME280;24974;54.444;18.560;2023-07-13T12:20:50;101046.72;;;30.55;nan
28797;BME280;24974;54.444;18.560;2023-07-13T12:26:02;101060.59;;;29.20;nan
28797;BME280;24974;54.444;18.560;2023-07-13T12:28:36;101062.25;;;30.51;nan
28797;BME280;24974;54.444;18.560;2023-07-13T12:31:25;101058.13;;;30.91;nan
28797;BME280;24974;54.444;18.560;2023-07-13T12:34:12;101051.50;;;30.42;nan
28797;BME280;24974;54.444;18.560;2023-07-13T12:36:51;101040.34;;;31.40;nan
28797;BME280;24974;54.444;18.560;2023-07-13T12:44:48;101047.91;;;29.75;nan
28797;BME280;24974;54.444;18.560;2023-07-13T12:47:21;101034.03;;;30.24;nan
28797;BME280;24974;54.444;18.560;2023-07-13T12:49:58;101034.28;;;30.89;nan
28797;BME280;24974;54.444;18.560;2023-07-13T12:52:34;101037.34;;;30.95;nan
28797;BME280;24974;54.444;18.560;2023-07-13T12:55:11;101041.81;;;29.30;nan
28797;BME280;24974;54.444;18.560;2023-07-13T12:57:51;101039.50;;;28.40;nan
28797;BME280;24974;54.444;18.560;2023-07-13T13:00:23;101044.00;;;28.34;nan
28797;BME280;24974;54.444;18.560;2023-07-13T13:02:56;101031.75;;;28.10;nan
28797;BME280;24974;54.444;18.560;2023-07-13T13:05:29;101032.06;;;29.58;nan
28797;BME280;24974;54.444;18.560;2023-07-13T13:08:00;101024.44;;;29.55;nan
28797;BME280;24974;54.444;18.560;2023-07-13T13:10:31;101022.50;;;29.91;nan
28797;BME280;24974;54.444;18.560;2023-07-13T13:13:02;101014.06;;;31.36;nan
28797;BME280;24974;54.444;18.560;2023-07-13T13:15:33;101019.31;;;31.37;nan
28797;BME280;24974;54.444;18.560;2023-07-13T13:18:17;101011.22;;;31.36;nan
28797;BME280;24974;54.444;18.560;2023-07-13T13:20:52;101020.81;;;31.42;nan
28797;BME280;24974;54.444;18.560;2023-07-13T13:23:22;101018.00;;;31.87;nan
28797;BME280;24974;54.444;18.560;2023-07-13T13:25:54;101018.66;;;32.20;nan
28797;BME280;24974;54.444;18.560;2023-07-13T13:28:25;101012.47;;;31.35;nan
28797;BME280;24974;54.444;18.560;2023-07-13T13:30:56;101016.78;;;30.74;nan
28797;BME280;24974;54.444;18.560;2023-07-13T13:33:27;101012.56;;;31.31;nan
28797;BME280;24974;54.444;18.560;2023-07-13T13:35:58;101019.03;;;31.32;nan
28797;BME280;24974;54.444;18.560;2023-07-13T13:38:29;101029.91;;;31.82;nan
28797;BME280;24974;54.444;18.560;2023-07-13T13:41:00;101024.56;;;32.13;nan
28797;BME280;24974;54.444;18.560;2023-07-13T13:43:31;101031.75;;;32.60;nan
28797;BME280;24974;54.444;18.560;2023-07-13T13:46:19;101035.75;;;30.57;nan
28797;BME280;24974;54.444;18.560;2023-07-13T13:48:51;101039.56;;;30.51;nan
28797;BME280;24974;54.444;18.560;2023-07-13T13:51:23;101044.28;;;28.74;nan
28797;BME280;24974;54.444;18.560;2023-07-13T13:53:55;101038.06;;;29.13;nan
28797;BME280;24974;54.444;18.560;2023-07-13T13:56:26;101032.91;;;28.47;nan
28797;BME280;24974;54.444;18.560;2023-07-13T13:58:57;101034.59;;;28.06;nan
28797;BME280;24974;54.444;18.560;2023-07-13T14:01:29;101040.78;;;28.62;nan
28797;BME280;24974;54.444;18.560;2023-07-13T14:04:01;101041.63;;;29.17;nan
28797;BME280;24974;54.444;18.560;2023-07-13T14:06:33;101047.72;;;30.09;nan
28797;BME280;24974;54.444;18.560;2023-07-13T14:09:05;101036.72;;;30.31;nan
28797;BME280;24974;54.444;18.560;2023-07-13T14:11:40;101051.41;;;29.12;nan
28797;BME280;24974;54.444;18.560;2023-07-13T14:14:23;101055.06;;;28.82;nan
28797;BME280;24974;54.444;18.560;2023-07-13T14:16:56;101060.88;;;28.72;nan